Time;durP1;ratioP1;P1;durP2;ratioP2;P2;SDS_P1;SDS_P2;PMS_P1;PMS_P2;Temp;Humidity;BMP_temperature;BMP_pressure;BME280_temperature;BME280_humidity;BME280_pressure;Samples;Min_cycle;Max_cycle;Signal;HPM_P1;HPM_P2
2022/03/17 00:00:58;;;;;;;18.60;5.53;;;;;;;-1.97;55.40;102322.42;1733444;83;21011;-62
2022/03/17 00:03:27;;;;;;;16.52;5.60;;;;;;;-1.90;55.36;102328.42;1733184;81;21050;-62
2022/03/17 00:05:56;;;;;;;18.30;7.12;;;;;;;-1.86;55.34;102320.16;1733078;81;21062;-62
2022/03/17 00:08:26;;;;;;;16.57;6.42;;;;;;;-1.82;55.16;102319.07;1733458;81;21079;-62
2022/03/17 00:10:56;;;;;;;18.25;6.40;;;;;;;-1.77;55.11;102322.41;1733311;82;21071;-63
2022/03/17 00:13:26;;;;;;;16.12;6.70;;;;;;;-1.72;54.97;102326.23;1733128;82;21055;-61
2022/03/17 00:15:55;;;;;;;18.40;7.37;;;;;;;-1.67;54.80;102326.41;1733233;81;21087;-62
2022/03/17 00:18:27;;;;;;;17.50;8.05;;;;;;;-1.64;54.73;102325.39;1733228;82;21011;-62
2022/03/17 00:20:58;;;;;;;20.17;7.62;;;;;;;-1.61;54.65;102320.75;1733129;83;21035;-63
2022/03/17 00:23:27;;;;;;;21.05;7.83;;;;;;;-1.58;54.75;102333.64;1733100;81;21078;-61
2022/03/17 00:25:56;;;;;;;21.07;8.03;;;;;;;-1.57;54.85;102328.19;1733250;81;21106;-62
2022/03/17 00:28:24;;;;;;;20.17;7.60;;;;;;;-1.54;54.84;102332.08;1733159;83;21058;-61
2022/03/17 00:30:53;;;;;;;16.73;7.10;;;;;;;-1.55;54.84;102330.81;1733160;83;21075;-62
2022/03/17 00:33:22;;;;;;;13.90;6.60;;;;;;;-1.54;54.91;102335.23;1733227;81;20988;-62
2022/03/17 00:35:52;;;;;;;19.40;7.87;;;;;;;-1.56;54.88;102333.09;1733271;82;21094;-62
2022/03/17 00:38:23;;;;;;;15.25;7.10;;;;;;;-1.57;54.95;102334.05;1733229;83;21017;-62
2022/03/17 00:40:52;;;;;;;18.87;7.80;;;;;;;-1.60;55.01;102338.62;1733362;81;21051;-62
2022/03/17 00:43:22;;;;;;;19.32;8.15;;;;;;;-1.56;55.05;102333.09;1733359;83;21462;-62
2022/03/17 00:45:51;;;;;;;16.07;7.22;;;;;;;-1.53;55.06;102336.98;1733452;82;21031;-62
2022/03/17 00:48:20;;;;;;;17.37;6.83;;;;;;;-1.50;55.11;102347.59;1733443;81;21011;-62
2022/03/17 00:50:50;;;;;;;18.27;7.20;;;;;;;-1.52;55.22;102344.11;1733288;81;21420;-62
2022/03/17 00:53:19;;;;;;;22.40;7.87;;;;;;;-1.58;55.39;102341.23;1733463;82;21047;-62
2022/03/17 00:55:48;;;;;;;19.50;7.60;;;;;;;-1.58;55.62;102340.36;1733341;81;21019;-62
2022/03/17 00:58:17;;;;;;;23.05;7.05;;;;;;;-1.62;55.72;102340.50;1733205;81;21031;-61
2022/03/17 01:00:48;;;;;;;23.18;8.10;;;;;;;-1.60;55.84;102344.47;1733273;83;21031;-62
2022/03/17 01:03:18;;;;;;;22.00;8.18;;;;;;;-1.62;55.87;102339.16;1733295;81;21522;-62
2022/03/17 01:05:48;;;;;;;23.00;8.45;;;;;;;-1.61;56.11;102344.06;1733400;83;21043;-60
2022/03/17 01:08:17;;;;;;;27.05;8.93;;;;;;;-1.62;56.18;102339.16;1733346;81;21038;-62
2022/03/17 01:10:48;;;;;;;18.50;7.95;;;;;;;-1.65;56.29;102336.62;1733215;81;21435;-62
2022/03/17 01:13:19;;;;;;;19.65;7.85;;;;;;;-1.66;56.43;102341.59;1733443;82;21510;-61
2022/03/17 01:15:49;;;;;;;17.27;7.33;;;;;;;-1.67;56.47;102337.16;1733437;81;21067;-62
2022/03/17 01:18:21;;;;;;;18.67;7.62;;;;;;;-1.65;56.50;102341.99;1733442;83;21505;-61
2022/03/17 01:20:52;;;;;;;14.90;6.80;;;;;;;-1.65;56.52;102338.44;1733187;81;21510;-61
2022/03/17 01:23:20;;;;;;;14.53;6.53;;;;;;;-1.68;56.67;102339.45;1733096;82;21557;-62
2022/03/17 01:25:49;;;;;;;17.57;7.03;;;;;;;-1.68;56.69;102347.52;1733332;81;21035;-60
2022/03/17 01:28:18;;;;;;;13.78;5.80;;;;;;;-1.71;56.54;102340.94;1733195;82;21027;-62
2022/03/17 01:30:48;;;;;;;13.20;5.80;;;;;;;-1.73;56.24;102341.48;1733166;83;21038;-62
2022/03/17 01:33:18;;;;;;;15.40;5.70;;;;;;;-1.74;55.76;102339.73;1733138;81;21019;-62
2022/03/17 01:35:49;;;;;;;13.68;5.40;;;;;;;-1.76;55.53;102340.28;1733344;83;21051;-62
2022/03/17 01:38:17;;;;;;;14.68;5.62;;;;;;;-1.76;55.14;102346.13;1733233;82;21019;-62
2022/03/17 01:40:46;;;;;;;13.80;5.37;;;;;;;-1.77;54.80;102345.25;1733393;82;21019;-62
2022/03/17 01:43:15;;;;;;;13.78;5.00;;;;;;;-1.82;54.30;102343.72;1733423;83;21057;-62
2022/03/17 01:45:45;;;;;;;13.05;5.35;;;;;;;-1.89;53.90;102341.78;1733197;81;21455;-62
2022/03/17 01:48:15;;;;;;;11.57;4.80;;;;;;;-1.92;53.92;102347.30;1733376;83;20991;-62
2022/03/17 01:50:45;;;;;;;13.30;5.12;;;;;;;-1.94;53.79;102342.47;1733237;83;21016;-61
2022/03/17 01:53:15;;;;;;;12.07;4.83;;;;;;;-1.97;53.64;102343.45;1733360;83;21022;-62
2022/03/17 01:55:44;;;;;;;9.13;4.70;;;;;;;-1.99;53.55;102350.70;1733296;83;20999;-61
2022/03/17 01:58:16;;;;;;;13.48;5.03;;;;;;;-2.00;53.64;102352.98;1733444;81;21050;-62
2022/03/17 02:00:45;;;;;;;14.58;5.33;;;;;;;-2.01;53.48;102340.50;1733218;83;21050;-63
2022/03/17 02:03:16;;;;;;;11.38;4.22;;;;;;;-2.02;53.46;102355.34;1652196;85;21063;-62
2022/03/17 02:05:46;;;;;;;13.53;4.58;;;;;;;-2.07;53.29;102358.23;1652238;86;21082;-62
2022/03/17 02:08:17;;;;;;;11.48;5.00;;;;;;;-2.10;53.24;102353.47;1652049;87;21075;-62
2022/03/17 02:13:37;;;;;;;11.00;4.50;;;;;;;-2.10;52.92;102361.53;1559214;92;21612;-62
2022/03/17 02:16:10;;;;;;;13.85;4.72;;;;;;;-2.12;52.74;102368.31;1559339;90;21074;-62
2022/03/17 02:18:41;;;;;;;13.18;4.42;;;;;;;-2.13;52.79;102373.28;1559317;92;21050;-62
2022/03/17 02:21:11;;;;;;;12.60;4.80;;;;;;;-2.12;52.63;102367.44;1588971;88;21577;-62
2022/03/17 02:26:31;;;;;;;12.03;4.33;;;;;;;-2.24;52.49;102368.39;1651925;85;21044;-62
2022/03/17 02:29:00;;;;;;;10.98;4.42;;;;;;;-2.23;52.52;102369.26;1702277;82;21050;-62
2022/03/17 02:31:29;;;;;;;15.08;5.37;;;;;;;-2.21;52.45;102371.88;1749439;81;21038;-62
2022/03/17 02:34:00;;;;;;;18.20;5.50;;;;;;;-2.20;52.42;102374.96;1749577;81;21066;-62
2022/03/17 02:36:29;;;;;;;16.52;5.55;;;;;;;-2.23;52.40;102375.97;1749405;82;21062;-62
2022/03/17 02:38:58;;;;;;;16.07;5.05;;;;;;;-2.24;52.51;102379.13;1749428;82;21015;-62
2022/03/17 02:41:27;;;;;;;24.70;8.15;;;;;;;-2.24;52.57;102380.94;1749642;82;21050;-63
2022/03/17 02:43:56;;;;;;;32.85;9.90;;;;;;;-2.27;52.87;102387.31;1749214;81;21355;-61
2022/03/17 02:46:25;;;;;;;28.27;8.98;;;;;;;-2.26;53.18;102385.03;1749664;80;21465;-62
2022/03/17 02:48:55;;;;;;;31.93;10.88;;;;;;;-2.27;53.45;102385.09;1749459;80;21524;-63
2022/03/17 02:51:23;;;;;;;29.57;10.03;;;;;;;-2.27;53.65;102388.66;1749492;82;21093;-61
2022/03/17 02:53:54;;;;;;;30.43;9.15;;;;;;;-2.27;53.79;102398.05;1749179;80;21520;-63
2022/03/17 02:56:24;;;;;;;26.82;9.80;;;;;;;-2.31;54.01;102396.44;1749482;82;21034;-63
2022/03/17 02:58:53;;;;;;;24.40;9.00;;;;;;;-2.36;54.05;102394.42;1749597;82;21007;-63
2022/03/17 03:01:26;;;;;;;26.42;9.20;;;;;;;-2.38;54.10;102393.62;1749618;82;21475;-63
2022/03/17 03:03:55;;;;;;;23.38;8.10;;;;;;;-2.42;54.18;102397.38;1749405;82;21030;-61
2022/03/17 03:06:23;;;;;;;25.35;9.03;;;;;;;-2.47;53.95;102396.70;1749513;82;20990;-62
2022/03/17 03:08:53;;;;;;;22.25;7.92;;;;;;;-2.53;53.94;102396.95;1749324;80;21451;-62
2022/03/17 03:11:22;;;;;;;21.77;7.28;;;;;;;-2.53;53.98;102402.32;1749627;80;21006;-63
2022/03/17 03:13:53;;;;;;;21.12;6.90;;;;;;;-2.55;53.81;102401.52;1687465;85;21033;-61
2022/03/17 03:16:23;;;;;;;20.40;7.55;;;;;;;-2.59;53.66;102398.55;1687623;85;21035;-63
2022/03/17 03:18:52;;;;;;;16.85;6.40;;;;;;;-2.63;53.56;102400.46;1687632;85;21039;-63
2022/03/17 03:21:22;;;;;;;18.35;6.47;;;;;;;-2.63;53.43;102411.66;1687608;85;21459;-63
2022/03/17 03:23:52;;;;;;;17.77;6.58;;;;;;;-2.67;53.28;102413.60;1687501;84;21063;-62
2022/03/17 03:26:22;;;;;;;24.57;6.70;;;;;;;-2.66;53.18;102417.16;1687663;85;21027;-63
2022/03/17 03:28:54;;;;;;;16.70;6.12;;;;;;;-2.66;53.00;102418.03;1687672;85;21062;-61
2022/03/17 03:31:23;;;;;;;15.08;6.45;;;;;;;-2.68;53.08;102412.33;1701296;82;21030;-63
2022/03/17 03:33:52;;;;;;;14.25;6.35;;;;;;;-2.68;53.24;102417.22;1749507;82;21019;-62
2022/03/17 03:39:09;;;;;;;16.50;6.25;;;;;;;-2.70;53.47;102423.59;1749628;82;21014;-62
2022/03/17 03:41:38;;;;;;;15.75;5.30;;;;;;;-2.71;53.53;102430.77;1749523;82;21026;-62
2022/03/17 03:44:07;;;;;;;13.53;5.12;;;;;;;-2.71;53.65;102430.77;1749454;80;21070;-61
2022/03/17 03:46:36;;;;;;;13.60;5.20;;;;;;;-2.73;53.73;102441.16;1722728;82;21030;-62
2022/03/17 03:49:06;;;;;;;11.83;4.80;;;;;;;-2.79;53.84;102436.03;1749514;80;21046;-62
2022/03/17 03:51:35;;;;;;;9.10;4.28;;;;;;;-2.80;53.86;102441.00;1749762;82;21077;-61
2022/03/17 03:54:15;;;;;;;8.73;3.75;;;;;;;-2.79;53.84;102444.95;1749534;81;21532;-62
2022/03/17 03:56:51;;;;;;;11.60;3.47;;;;;;;-2.79;53.66;102442.74;1749446;80;21454;-61
2022/03/17 03:59:25;;;;;;;10.28;3.62;;;;;;;-2.80;53.44;102449.05;1749394;81;21054;-62
2022/03/17 04:01:58;;;;;;;7.45;3.20;;;;;;;-2.83;53.20;102451.38;1749607;82;21011;-62
2022/03/17 04:04:28;;;;;;;8.83;3.92;;;;;;;-2.82;52.94;102453.13;1749579;80;21026;-62
2022/03/17 04:06:59;;;;;;;8.93;3.90;;;;;;;-2.88;52.93;102452.91;1749464;82;21049;-62
2022/03/17 04:09:36;;;;;;;8.68;3.55;;;;;;;-2.89;53.07;102459.67;1749392;80;21492;-59
2022/03/17 04:12:06;;;;;;;7.30;3.52;;;;;;;-2.89;53.03;102459.20;1749564;81;21071;-62
2022/03/17 04:14:34;;;;;;;7.83;3.52;;;;;;;-2.89;53.03;102463.23;1722425;82;21069;-62
2022/03/17 04:17:05;;;;;;;7.03;3.35;;;;;;;-2.87;52.67;102466.73;1749639;81;21074;-62
2022/03/17 04:19:36;;;;;;;9.33;3.83;;;;;;;-2.91;52.34;102464.23;1749349;81;21431;-62
2022/03/17 04:22:05;;;;;;;7.47;3.15;;;;;;;-2.97;52.50;102462.66;1749473;82;21202;-62
2022/03/17 04:24:37;;;;;;;6.35;3.00;;;;;;;-2.97;52.14;102470.70;1687458;83;21556;-62
2022/03/17 04:27:06;;;;;;;5.50;2.90;;;;;;;-2.96;51.89;102472.45;1687590;85;21050;-62
2022/03/17 04:29:36;;;;;;;8.65;3.33;;;;;;;-2.99;51.67;102464.53;1687561;85;21419;-61
2022/03/17 04:32:07;;;;;;;6.72;3.08;;;;;;;-2.96;51.46;102477.82;1687903;85;21517;-62
2022/03/17 04:34:36;;;;;;;7.58;3.90;;;;;;;-2.96;51.46;102477.82;1687570;85;21451;-62
2022/03/17 04:37:07;;;;;;;10.35;4.50;;;;;;;-2.94;51.40;102479.97;1687885;85;21039;-63
2022/03/17 04:39:35;;;;;;;10.63;5.17;;;;;;;-2.95;51.33;102480.91;1687556;83;21110;-61
2022/03/17 04:42:05;;;;;;;14.28;6.08;;;;;;;-2.93;51.28;102479.04;1700898;82;21003;-63
2022/03/17 04:44:35;;;;;;;15.78;6.78;;;;;;;-2.95;51.20;102486.27;1687617;85;21070;-63
2022/03/17 04:47:06;;;;;;;18.87;7.08;;;;;;;-2.95;51.25;102486.27;1687574;85;21047;-60
2022/03/17 04:49:35;;;;;;;15.63;6.70;;;;;;;-2.95;51.30;102485.40;1687609;85;21066;-61
2022/03/17 04:53:26;;;;;;;19.07;7.28;;;;;;;-2.94;51.32;102496.06;1687700;85;21486;-63
2022/03/17 04:54:37;;;;;;;19.42;7.45;;;;;;;-2.95;51.47;102497.00;1684617;83;21110;-63
2022/03/17 04:57:07;;;;;;;18.77;7.28;;;;;;;-2.93;51.63;102499.62;1687700;85;21055;-62
2022/03/17 04:59:35;;;;;;;18.23;8.05;;;;;;;-2.94;51.67;102505.45;1687618;85;21043;-61
2022/03/17 05:02:05;;;;;;;16.75;6.78;;;;;;;-2.94;51.68;102504.58;1701025;82;21046;-62
2022/03/17 05:04:35;;;;;;;16.87;7.35;;;;;;;-2.87;51.58;102506.09;1749420;80;21031;-63
2022/03/17 05:07:04;;;;;;;18.20;7.20;;;;;;;-2.86;51.37;102507.84;1749438;82;21058;-63
2022/03/17 05:09:33;;;;;;;18.23;7.70;;;;;;;-2.88;51.28;102513.73;1749304;82;21042;-63
2022/03/17 05:12:03;;;;;;;17.10;7.50;;;;;;;-2.88;51.22;102509.23;1749353;80;21062;-62
2022/03/17 05:14:37;;;;;;;16.35;6.58;;;;;;;-2.82;51.24;102509.93;1749484;82;21438;-62
2022/03/17 05:17:05;;;;;;;16.75;7.08;;;;;;;-2.81;51.07;102513.02;1749131;82;21018;-61
2022/03/17 05:19:34;;;;;;;18.00;7.55;;;;;;;-2.77;50.87;102521.36;1749325;80;21050;-62
2022/03/17 05:22:04;;;;;;;15.18;7.00;;;;;;;-2.75;50.74;102516.80;1749331;82;21475;-62
2022/03/17 05:24:33;;;;;;;19.37;7.20;;;;;;;-2.73;50.55;102523.86;1740837;82;21086;-62
2022/03/17 05:27:03;;;;;;;16.45;8.08;;;;;;;-2.69;50.68;102525.95;1733318;83;21102;-61
2022/03/17 05:29:32;;;;;;;18.75;6.95;;;;;;;-2.64;50.53;102530.20;1733064;83;21452;-62
2022/03/17 05:32:01;;;;;;;15.35;7.67;;;;;;;-2.59;50.33;102532.27;1732846;82;21011;-63
2022/03/17 05:34:32;;;;;;;18.35;8.23;;;;;;;-2.52;50.31;102537.39;1733490;83;21169;-63
2022/03/17 05:37:00;;;;;;;13.83;6.83;;;;;;;-2.45;50.17;102538.42;1733169;81;21007;-62
2022/03/17 05:39:30;;;;;;;14.15;6.78;;;;;;;-2.38;49.69;102544.42;1733492;83;21011;-62
2022/03/17 05:41:59;;;;;;;13.05;6.03;;;;;;;-2.38;49.56;102552.00;1733379;81;21097;-62
2022/03/17 05:44:30;;;;;;;13.13;6.12;;;;;;;-2.31;49.27;102554.84;1733182;81;20999;-66
2022/03/17 05:47:00;;;;;;;14.18;6.05;;;;;;;-2.25;48.91;102559.09;1733435;82;21007;-62
2022/03/17 05:49:30;;;;;;;13.08;6.08;;;;;;;-2.19;48.83;102558.84;1733154;81;21151;-62
2022/03/17 05:52:00;;;;;;;14.55;6.17;;;;;;;-2.16;48.45;102552.47;1733086;83;21070;-63
2022/03/17 05:54:28;;;;;;;12.20;5.50;;;;;;;-2.14;48.48;102557.31;1733056;83;21023;-62
2022/03/17 05:56:58;;;;;;;12.20;6.00;;;;;;;-2.12;48.32;102548.72;1733283;83;21043;-62
2022/03/17 05:59:27;;;;;;;12.95;5.78;;;;;;;-2.10;47.96;102561.62;1712742;83;21483;-64
2022/03/17 06:01:59;;;;;;;13.65;6.20;;;;;;;-2.10;47.79;102562.48;1733060;81;21565;-62
2022/03/17 06:04:30;;;;;;;10.25;5.67;;;;;;;-2.12;47.81;102568.39;1730794;82;21028;-62
2022/03/17 06:06:59;;;;;;;13.58;5.53;;;;;;;-2.10;47.83;102564.30;1733464;83;21087;-62
2022/03/17 06:09:28;;;;;;;13.00;6.25;;;;;;;-2.05;47.59;102557.80;1733051;83;21549;-63
2022/03/17 06:11:57;;;;;;;11.60;5.20;;;;;;;-2.03;47.45;102563.11;1733065;81;21066;-62
2022/03/17 06:14:27;;;;;;;10.58;5.10;;;;;;;-2.04;47.15;102564.05;1733333;81;20983;-63
2022/03/17 06:16:57;;;;;;;11.30;5.12;;;;;;;-2.04;47.25;102566.73;1733524;83;21011;-62
2022/03/17 06:19:28;;;;;;;12.63;5.35;;;;;;;-2.03;47.13;102569.83;1733342;81;21512;-63
2022/03/17 06:21:58;;;;;;;11.25;5.35;;;;;;;-2.00;47.12;102581.31;1733292;83;21054;-63
2022/03/17 06:24:27;;;;;;;12.73;6.12;;;;;;;-2.00;46.88;102570.57;1733244;82;21435;-63
2022/03/17 06:26:56;;;;;;;15.63;6.10;;;;;;;-2.01;46.77;102580.03;1733155;81;20991;-62
2022/03/17 06:29:25;;;;;;;10.23;5.70;;;;;;;-2.04;46.78;102587.75;1733392;81;21037;-62
2022/03/17 06:31:56;;;;;;;13.45;6.15;;;;;;;-2.04;46.81;102577.48;1733465;81;21055;-65
2022/03/17 06:34:25;;;;;;;14.53;5.47;;;;;;;-2.06;46.49;102570.83;1733216;83;21444;-64
2022/03/17 06:36:54;;;;;;;11.73;4.78;;;;;;;-2.08;46.56;102573.17;1733427;83;20987;-64
2022/03/17 06:39:23;;;;;;;11.55;5.58;;;;;;;-2.08;46.28;102587.47;1733522;81;21067;-63
2022/03/17 06:41:52;;;;;;;9.80;4.65;;;;;;;-2.13;46.55;102584.09;1733179;81;21015;-63
2022/03/17 06:44:21;;;;;;;14.20;5.28;;;;;;;-2.11;46.59;102575.52;1733274;83;21015;-64
2022/03/17 06:46:51;;;;;;;11.65;5.00;;;;;;;-2.09;46.67;102574.11;1733400;81;21023;-64
2022/03/17 06:49:21;;;;;;;10.25;4.17;;;;;;;-2.04;46.66;102578.81;1733471;82;21047;-62
2022/03/17 06:51:52;;;;;;;6.78;3.30;;;;;;;-1.97;46.42;102576.28;1733381;81;21019;-63
2022/03/17 06:54:21;;;;;;;6.22;3.35;;;;;;;-1.90;45.22;102579.63;1733192;83;20987;-62
2022/03/17 06:56:50;;;;;;;8.18;3.37;;;;;;;-1.88;44.58;102578.62;1652347;86;21524;-63
2022/03/17 06:59:19;;;;;;;4.92;2.80;;;;;;;-1.84;44.47;102569.48;1652439;86;21063;-63
2022/03/17 07:01:48;;;;;;;5.45;2.47;;;;;;;-1.78;44.17;102569.70;1652319;87;21074;-62
2022/03/17 07:04:17;;;;;;;6.25;2.83;;;;;;;-1.75;43.62;102574.47;1652117;86;21531;-64
2022/03/17 07:06:48;;;;;;;8.98;3.00;;;;;;;-1.75;42.61;102581.19;1652264;85;21497;-62
2022/03/17 07:09:17;;;;;;;6.40;2.45;;;;;;;-1.75;42.20;102578.97;1652115;86;21123;-62
2022/03/17 07:11:47;;;;;;;5.37;2.85;;;;;;;-1.72;41.93;102577.50;1652365;86;21079;-62
2022/03/17 07:14:16;;;;;;;3.60;2.02;;;;;;;-1.69;41.75;102579.59;1668473;83;21047;-62
2022/03/17 07:16:44;;;;;;;5.42;2.33;;;;;;;-1.68;40.83;102582.67;1733346;81;21038;-62
2022/03/17 07:19:13;;;;;;;3.27;2.10;;;;;;;-1.68;41.22;102581.33;1733199;81;21067;-63
2022/03/17 07:21:45;;;;;;;7.12;2.55;;;;;;;-1.68;40.19;102575.09;1733292;82;21016;-63
2022/03/17 07:24:15;;;;;;;6.28;2.62;;;;;;;-1.70;40.23;102576.97;1736854;81;21025;-63
2022/03/17 07:26:45;;;;;;;5.85;2.17;;;;;;;-1.69;40.31;102574.68;1757232;80;21046;-62
2022/03/17 07:29:17;;;;;;;9.73;2.58;;;;;;;-1.65;40.45;102579.86;1757379;82;21062;-64
2022/03/17 07:31:46;;;;;;;9.83;2.47;;;;;;;-1.58;40.31;102583.63;1757374;80;21046;-66
2022/03/17 07:34:16;;;;;;;7.45;2.27;;;;;;;-1.53;40.22;102578.92;1757532;82;21053;-63
2022/03/17 07:36:45;;;;;;;4.40;2.30;;;;;;;-1.50;39.73;102582.35;1757239;82;21890;-63
2022/03/17 07:39:14;;;;;;;6.12;2.25;;;;;;;-1.47;39.43;102584.03;1757331;80;21450;-62
2022/03/17 07:41:44;;;;;;;4.47;1.95;;;;;;;-1.47;39.17;102582.22;1757301;82;21042;-63
2022/03/17 07:44:13;;;;;;;5.58;2.50;;;;;;;-1.46;39.29;102576.38;1757192;80;21450;-64
2022/03/17 07:46:57;;;;;;;7.47;2.98;;;;;;;-1.42;39.39;102573.95;1757209;80;21003;-63
2022/03/17 07:49:37;;;;;;;6.83;2.55;;;;;;;-1.40;39.46;102580.13;1757440;82;21052;-62
2022/03/17 07:52:07;;;;;;;5.42;2.30;;;;;;;-1.35;39.36;102579.46;1757242;80;21050;-61
2022/03/17 07:54:36;;;;;;;5.35;2.20;;;;;;;-1.32;38.98;102579.33;1757154;80;21018;-64
2022/03/17 07:57:05;;;;;;;7.78;2.40;;;;;;;-1.30;39.30;102577.00;1757237;82;21685;-63
2022/03/17 07:59:37;;;;;;;4.92;2.58;;;;;;;-1.28;39.53;102572.90;1707671;82;21066;-62
2022/03/17 08:02:08;;;;;;;5.83;2.58;;;;;;;-1.07;39.73;102577.78;1757229;80;20994;-62
2022/03/17 08:04:38;;;;;;;7.35;2.67;;;;;;;-0.62;39.51;102572.13;1757410;82;21019;-63
2022/03/17 08:07:07;;;;;;;3.92;2.35;;;;;;;-0.05;38.55;102581.02;1757217;82;21018;-62
2022/03/17 08:09:36;;;;;;;5.50;2.15;;;;;;;0.53;37.71;102574.05;1757320;81;21010;-62
2022/03/17 08:12:09;;;;;;;4.42;2.50;;;;;;;1.03;36.82;102574.57;1667023;86;21054;-63
2022/03/17 08:14:38;;;;;;;7.50;2.50;;;;;;;1.54;35.90;102575.77;1666755;86;21458;-65
2022/03/17 08:17:11;;;;;;;6.05;2.65;;;;;;;1.99;34.71;102575.97;1666740;86;21038;-63
2022/03/17 08:19:40;;;;;;;4.22;2.25;;;;;;;2.33;34.35;102566.74;1666587;86;21019;-63
2022/03/17 08:22:09;;;;;;;7.37;2.52;;;;;;;2.69;34.04;102569.09;1667018;85;21561;-64
2022/03/17 08:24:38;;;;;;;9.78;2.50;;;;;;;3.05;32.41;102557.34;1664537;86;21079;-64
2022/03/17 08:27:07;;;;;;;4.90;2.02;;;;;;;3.26;31.36;102557.84;1652047;87;21046;-62
2022/03/17 08:29:40;;;;;;;5.20;2.20;;;;;;;3.47;30.99;102571.86;1671804;82;21046;-64
2022/03/17 08:32:10;;;;;;;6.47;2.27;;;;;;;3.45;31.17;102559.77;1743172;82;21026;-65
2022/03/17 08:34:40;;;;;;;5.50;2.50;;;;;;;3.44;31.11;102570.70;1743504;82;21011;-60
2022/03/17 08:37:09;;;;;;;4.92;2.35;;;;;;;3.45;30.65;102569.73;1743243;81;21066;-63
2022/03/17 08:39:39;;;;;;;3.60;2.37;;;;;;;3.57;30.86;102555.87;1743319;82;21408;-63
2022/03/17 08:42:09;;;;;;;4.20;2.37;;;;;;;3.72;31.07;102556.23;1743368;82;21466;-64
2022/03/17 08:44:41;;;;;;;8.05;2.60;;;;;;;3.83;30.89;102557.75;1743312;81;21034;-62
2022/03/17 08:49:58;;;;;;;5.05;2.70;;;;;;;3.62;30.60;102556.45;1743312;81;21415;-62
2022/03/17 08:52:28;;;;;;;4.20;2.42;;;;;;;3.57;30.58;102557.23;1743646;81;21015;-64
2022/03/17 08:54:58;;;;;;;6.83;2.62;;;;;;;3.64;30.60;102559.92;1743465;82;21015;-64
2022/03/17 08:57:27;;;;;;;6.15;2.72;;;;;;;3.72;30.40;102557.09;1743776;81;21066;-62
2022/03/17 08:59:55;;;;;;;5.35;2.27;;;;;;;3.68;30.20;102563.69;1743584;81;21027;-62
2022/03/17 09:02:24;;;;;;;5.75;2.58;;;;;;;3.45;30.41;102562.48;1743424;82;21059;-62
2022/03/17 09:04:53;;;;;;;5.47;2.60;;;;;;;3.19;30.97;102568.66;1743217;82;21046;-63
2022/03/17 09:07:23;;;;;;;4.80;2.40;;;;;;;2.97;30.87;102568.27;1743426;81;20983;-63
2022/03/17 09:09:52;;;;;;;9.30;2.60;;;;;;;2.78;31.17;102567.17;1743417;81;21070;-62
2022/03/17 09:12:22;;;;;;;7.55;2.67;;;;;;;2.61;31.37;102576.33;1743474;82;21524;-64
2022/03/17 09:14:52;;;;;;;10.15;2.98;;;;;;;2.45;31.72;102567.36;1743495;82;21403;-65
2022/03/17 09:17:21;;;;;;;4.78;2.60;;;;;;;2.34;31.98;102568.00;1714828;82;21082;-63
2022/03/17 09:19:50;;;;;;;13.30;3.42;;;;;;;2.21;32.05;102573.27;1743486;81;21034;-63
2022/03/17 09:22:20;;;;;;;6.83;2.92;;;;;;;2.04;32.32;102573.39;1743700;81;21014;-63
2022/03/17 09:24:49;;;;;;;7.12;3.02;;;;;;;1.83;32.65;102570.55;1742377;82;21046;-63
2022/03/17 09:27:18;;;;;;;6.95;2.70;;;;;;;1.67;32.80;102574.60;1733543;81;21100;-64
2022/03/17 09:29:46;;;;;;;5.72;2.80;;;;;;;1.51;33.23;102564.27;1733197;81;21475;-61
2022/03/17 09:32:20;;;;;;;5.97;2.65;;;;;;;1.42;33.51;102549.45;1733386;83;21013;-63
2022/03/17 09:34:46;;;;;;;6.97;2.83;;;;;;;1.43;33.71;102562.00;1733317;81;21072;-64
2022/03/17 09:37:17;;;;;;;5.42;2.42;;;;;;;1.53;33.71;102568.63;1733278;81;21101;-63
2022/03/17 09:39:45;;;;;;;4.95;2.40;;;;;;;1.54;33.56;102566.32;1733468;83;21014;-63
2022/03/17 09:42:17;;;;;;;3.45;2.10;;;;;;;1.54;33.43;102572.20;1733474;81;21011;-63
2022/03/17 09:44:53;;;;;;;9.75;2.87;;;;;;;1.53;33.63;102553.77;1733360;83;21075;-65
2022/03/17 09:47:24;;;;;;;5.20;3.02;;;;;;;1.55;33.96;102572.11;1733169;83;21426;-63
2022/03/17 09:49:53;;;;;;;5.80;2.70;;;;;;;1.57;33.42;102565.27;1733230;83;21487;-63
2022/03/17 09:52:22;;;;;;;5.80;2.70;;;;;;;1.39;33.71;102560.91;1733439;82;21078;-63
2022/03/17 09:54:52;;;;;;;6.40;3.40;;;;;;;1.33;33.82;102555.37;1733385;81;20991;-62
2022/03/17 09:57:21;;;;;;;7.62;2.95;;;;;;;1.36;34.00;102561.08;1733236;83;20987;-62
2022/03/17 09:59:59;;;;;;;6.55;2.90;;;;;;;1.36;33.85;102557.89;1733416;83;21042;-62
2022/03/17 10:02:27;;;;;;;;;;;;;;;1.33;33.74;102556.72;1735773;81;21600;-64
2022/03/17 10:04:57;;;;;;;10.32;2.77;;;;;;;1.26;33.87;102572.84;1733199;83;20211;-64
2022/03/17 10:07:28;;;;;;;5.87;2.67;;;;;;;1.23;34.01;102563.55;1713259;83;21440;-63
2022/03/17 10:09:57;;;;;;;5.90;2.70;;;;;;;1.28;34.09;102566.88;1733360;81;21447;-63
2022/03/17 10:12:30;;;;;;;6.42;2.70;;;;;;;1.39;34.11;102564.95;1733468;83;21023;-62
2022/03/17 10:14:58;;;;;;;10.70;2.42;;;;;;;1.38;33.94;102573.54;1733202;83;21511;-61
2022/03/17 10:17:38;;;;;;;6.17;2.77;;;;;;;1.33;34.10;102562.13;1733320;81;21043;-63
2022/03/17 10:20:26;;;;;;;6.08;2.87;;;;;;;1.31;34.30;102573.48;1733349;83;21039;-62
2022/03/17 10:22:56;;;;;;;10.55;2.90;;;;;;;1.30;34.31;102569.05;1733096;81;21455;-63
2022/03/17 10:25:29;;;;;;;10.85;3.33;;;;;;;1.26;34.21;102567.44;1738686;82;21478;-62
2022/03/17 10:27:59;;;;;;;5.45;2.75;;;;;;;1.21;34.31;102537.11;1757414;82;20986;-63
2022/03/17 10:30:34;;;;;;;5.62;2.30;;;;;;;1.25;34.64;102553.54;1757228;80;21022;-62
2022/03/17 10:33:20;;;;;;;5.67;2.50;;;;;;;1.39;34.54;102556.38;1757435;82;21474;-64
2022/03/17 10:35:48;;;;;;;7.25;2.60;;;;;;;1.48;34.27;102546.41;1756434;80;21046;-63
2022/03/17 10:38:20;;;;;;;6.45;2.45;;;;;;;1.52;34.09;102547.97;1757245;80;21050;-62
2022/03/17 10:41:03;;;;;;;6.47;2.52;;;;;;;1.56;34.23;102548.67;1757471;80;20994;-63
2022/03/17 10:43:34;;;;;;;8.85;3.02;;;;;;;1.57;34.15;102548.58;1757189;82;21021;-62
2022/03/17 10:46:20;;;;;;;5.47;2.90;;;;;;;1.64;34.34;102543.70;1757426;82;21022;-63
2022/03/17 10:49:07;;;;;;;13.43;2.50;;;;;;;1.72;34.46;102546.84;1757488;82;21006;-62
2022/03/17 10:51:44;;;;;;;4.60;2.70;;;;;;;1.81;34.60;102551.71;1757119;80;21516;-62
2022/03/17 10:54:18;;;;;;;6.47;2.77;;;;;;;1.88;34.40;102546.34;1757598;81;21025;-63
2022/03/17 10:57:09;;;;;;;5.75;2.98;;;;;;;1.85;34.74;102552.41;1757407;80;21085;-63
2022/03/17 10:59:44;;;;;;;5.60;2.87;;;;;;;1.84;34.95;102569.10;1730928;82;21034;-63
2022/03/17 11:02:25;;;;;;;5.65;2.58;;;;;;;1.82;34.63;102560.22;1757195;81;21014;-63
2022/03/17 11:04:49;;;;;;;4.72;2.17;;;;;;;1.79;34.61;102554.11;1757065;82;21018;-63
2022/03/17 11:07:21;;;;;;;5.08;2.27;;;;;;;1.74;34.78;102553.50;1757418;81;21084;-63
2022/03/17 11:09:51;;;;;;;5.05;2.40;;;;;;;1.75;34.69;102548.49;1757319;80;21042;-63
2022/03/17 11:12:22;;;;;;;5.92;2.67;;;;;;;1.76;34.56;102544.35;1757393;82;21042;-62
2022/03/17 11:14:51;;;;;;;3.62;2.30;;;;;;;1.75;34.28;102554.77;1757155;81;21050;-63
2022/03/17 11:17:34;;;;;;;4.97;2.40;;;;;;;1.74;34.13;102560.27;1757403;82;20986;-62
2022/03/17 11:20:06;;;;;;;6.75;2.60;;;;;;;1.67;34.06;102555.69;1746216;82;21022;-63
2022/03/17 11:22:37;;;;;;;4.53;2.30;;;;;;;1.56;34.41;102551.38;1757288;80;21065;-61
2022/03/17 11:25:25;;;;;;;4.50;2.37;;;;;;;1.53;34.61;102540.27;1757211;82;21270;-63
2022/03/17 11:27:58;;;;;;;11.18;3.17;;;;;;;1.57;34.62;102539.61;1757224;82;21069;-62
2022/03/17 11:30:46;;;;;;;4.67;2.45;;;;;;;1.63;34.58;102541.09;1757156;81;21049;-62
2022/03/17 11:33:28;;;;;;;4.87;2.50;;;;;;;1.63;33.90;102547.84;1757159;80;21042;-63
2022/03/17 11:36:00;;;;;;;7.92;2.80;;;;;;;1.63;34.05;102541.96;1757130;82;21041;-62
2022/03/17 11:38:36;;;;;;;8.40;3.20;;;;;;;1.63;34.40;102546.49;1755677;82;21025;-62
2022/03/17 11:41:08;;;;;;;6.60;3.22;;;;;;;1.69;33.97;102541.61;1757444;82;21014;-62
2022/03/17 11:43:52;;;;;;;6.30;2.77;;;;;;;1.72;33.77;102543.27;1757030;80;21046;-62
2022/03/17 11:46:23;;;;;;;4.30;2.25;;;;;;;1.75;33.87;102537.20;1757191;82;21070;-64
2022/03/17 11:48:58;;;;;;;5.35;2.30;;;;;;;1.79;33.92;102546.00;1757196;82;21061;-63
2022/03/17 11:51:26;;;;;;;7.33;2.62;;;;;;;1.84;33.92;102542.55;1756763;80;20990;-62